EDDC/DRS METAR and TAF weather

Enter ICAO airport designator
Station Type Date Time Source
EDDC METAR 2022/11/30 10:50 UTC NOAA

EDDC 301050Z AUTO 14007KT CAVOK 05/00 Q1023 NOSIG


Station Type Date Time Source
EDDC Decoded METAR 2022/11/30 10:50 UTC NOAA

Dresden-Klotzsche, Germany (EDDC) 51-08N 013-45E 232M
Nov 30, 2022 - 05:50 AM EST / 2022.11.30 1050 UTC
Wind: from the SE (140 degrees) at 8 MPH (7 KT):0
Visibility: greater than 7 mile(s):0
Temperature: 41 F (5 C)
Dew Point: 32 F (0 C)
Relative Humidity: 70%
Pressure (altimeter): 30.21 in. Hg (1023 hPa)
ob: EDDC 301050Z AUTO 14007KT CAVOK 05/00 Q1023 NOSIG
cycle: 11

Station Type Date Time Source
EDDC TAF 2022/11/30 06:27 UTC NOAA

TAF EDDC 300500Z 3006/0106 15005KT CAVOK PROB30
TEMPO 3022/0106 4000 BR BKN004

Example: see airport list